sensor_id;sensor_type;location;lat;lon;timestamp;temperature;humidity
2657;DHT22;1338;48.176;11.792;2022-07-29T00:01:14;19.60;1.00
2657;DHT22;1338;48.176;11.792;2022-07-29T00:03:45;19.60;1.00
2657;DHT22;1338;48.176;11.792;2022-07-29T00:06:14;19.70;1.00
2657;DHT22;1338;48.176;11.792;2022-07-29T00:08:42;19.60;1.00
2657;DHT22;1338;48.176;11.792;2022-07-29T00:11:10;19.50;1.00
2657;DHT22;1338;48.176;11.792;2022-07-29T00:13:39;19.50;1.00
2657;DHT22;1338;48.176;11.792;2022-07-29T00:16:07;19.50;1.00
2657;DHT22;1338;48.176;11.792;2022-07-29T00:18:36;19.50;1.00
2657;DHT22;1338;48.176;11.792;2022-07-29T00:21:06;19.50;1.00
2657;DHT22;1338;48.176;11.792;2022-07-29T00:23:34;19.40;1.00
2657;DHT22;1338;48.176;11.792;2022-07-29T00:26:02;19.40;1.00
2657;DHT22;1338;48.176;11.792;2022-07-29T00:28:31;19.40;1.00
2657;DHT22;1338;48.176;11.792;2022-07-29T00:30:59;19.30;1.00
2657;DHT22;1338;48.176;11.792;2022-07-29T00:33:28;19.30;1.00
2657;DHT22;1338;48.176;11.792;2022-07-29T00:35:58;19.20;1.00
2657;DHT22;1338;48.176;11.792;2022-07-29T00:38:25;19.30;1.00
2657;DHT22;1338;48.176;11.792;2022-07-29T00:40:53;19.20;1.00
2657;DHT22;1338;48.176;11.792;2022-07-29T00:43:21;19.20;1.00
2657;DHT22;1338;48.176;11.792;2022-07-29T00:45:49;19.40;1.00
2657;DHT22;1338;48.176;11.792;2022-07-29T00:48:17;19.20;1.00
2657;DHT22;1338;48.176;11.792;2022-07-29T00:50:46;19.20;1.00
2657;DHT22;1338;48.176;11.792;2022-07-29T00:53:15;19.20;1.00
2657;DHT22;1338;48.176;11.792;2022-07-29T00:55:43;19.30;1.00
2657;DHT22;1338;48.176;11.792;2022-07-29T00:58:12;19.20;1.00
2657;DHT22;1338;48.176;11.792;2022-07-29T01:00:42;19.10;1.00
2657;DHT22;1338;48.176;11.792;2022-07-29T01:03:11;19.10;1.00
2657;DHT22;1338;48.176;11.792;2022-07-29T01:05:41;19.20;1.00
2657;DHT22;1338;48.176;11.792;2022-07-29T01:08:19;19.00;1.00
2657;DHT22;1338;48.176;11.792;2022-07-29T01:10:48;18.90;1.00
2657;DHT22;1338;48.176;11.792;2022-07-29T01:13:17;18.90;1.00
2657;DHT22;1338;48.176;11.792;2022-07-29T01:15:51;18.90;1.00
2657;DHT22;1338;48.176;11.792;2022-07-29T01:18:28;18.90;1.00
2657;DHT22;1338;48.176;11.792;2022-07-29T01:21:24;18.80;1.00
2657;DHT22;1338;48.176;11.792;2022-07-29T01:24:11;18.80;1.00
2657;DHT22;1338;48.176;11.792;2022-07-29T01:26:47;18.70;1.00
2657;DHT22;1338;48.176;11.792;2022-07-29T01:29:21;18.70;1.00
2657;DHT22;1338;48.176;11.792;2022-07-29T01:32:05;18.80;1.00
2657;DHT22;1338;48.176;11.792;2022-07-29T01:34:56;18.70;1.00
2657;DHT22;1338;48.176;11.792;2022-07-29T01:37:29;18.60;1.00
2657;DHT22;1338;48.176;11.792;2022-07-29T01:40:02;18.60;1.00
2657;DHT22;1338;48.176;11.792;2022-07-29T01:42:35;18.60;1.00
2657;DHT22;1338;48.176;11.792;2022-07-29T01:45:12;18.60;1.00
2657;DHT22;1338;48.176;11.792;2022-07-29T01:47:44;18.60;1.00
2657;DHT22;1338;48.176;11.792;2022-07-29T01:50:16;18.50;1.00
2657;DHT22;1338;48.176;11.792;2022-07-29T01:52:49;18.70;1.00
2657;DHT22;1338;48.176;11.792;2022-07-29T01:55:20;18.70;1.00
2657;DHT22;1338;48.176;11.792;2022-07-29T01:57:50;18.50;1.00
2657;DHT22;1338;48.176;11.792;2022-07-29T02:00:20;18.60;1.00
2657;DHT22;1338;48.176;11.792;2022-07-29T02:02:50;18.70;1.00
2657;DHT22;1338;48.176;11.792;2022-07-29T02:05:21;18.50;1.00
2657;DHT22;1338;48.176;11.792;2022-07-29T02:07:52;18.50;1.00
2657;DHT22;1338;48.176;11.792;2022-07-29T02:10:26;18.50;1.00
2657;DHT22;1338;48.176;11.792;2022-07-29T02:12:56;18.50;1.00
2657;DHT22;1338;48.176;11.792;2022-07-29T02:15:29;18.50;1.00
2657;DHT22;1338;48.176;11.792;2022-07-29T02:18:01;18.50;1.00
2657;DHT22;1338;48.176;11.792;2022-07-29T02:20:30;18.50;1.00
2657;DHT22;1338;48.176;11.792;2022-07-29T02:22:59;18.60;1.00
2657;DHT22;1338;48.176;11.792;2022-07-29T02:25:29;18.60;1.00
2657;DHT22;1338;48.176;11.792;2022-07-29T02:28:05;19.00;1.00
2657;DHT22;1338;48.176;11.792;2022-07-29T02:30:38;18.70;1.00
2657;DHT22;1338;48.176;11.792;2022-07-29T02:33:08;18.60;1.00
2657;DHT22;1338;48.176;11.792;2022-07-29T02:35:39;18.50;1.00
2657;DHT22;1338;48.176;11.792;2022-07-29T02:38:10;18.50;1.00
2657;DHT22;1338;48.176;11.792;2022-07-29T02:40:59;18.50;1.00
2657;DHT22;1338;48.176;11.792;2022-07-29T02:43:29;18.50;1.00
2657;DHT22;1338;48.176;11.792;2022-07-29T02:46:00;18.60;1.00
2657;DHT22;1338;48.176;11.792;2022-07-29T02:48:42;18.80;1.00
2657;DHT22;1338;48.176;11.792;2022-07-29T02:51:16;18.70;1.00
2657;DHT22;1338;48.176;11.792;2022-07-29T02:54:07;18.60;1.00
2657;DHT22;1338;48.176;11.792;2022-07-29T02:56:38;18.70;1.00
2657;DHT22;1338;48.176;11.792;2022-07-29T02:59:10;18.60;1.00
2657;DHT22;1338;48.176;11.792;2022-07-29T03:01:43;18.50;1.00
2657;DHT22;1338;48.176;11.792;2022-07-29T03:04:13;18.50;1.00
2657;DHT22;1338;48.176;11.792;2022-07-29T03:06:43;18.50;1.00
2657;DHT22;1338;48.176;11.792;2022-07-29T03:09:13;18.30;1.00
2657;DHT22;1338;48.176;11.792;2022-07-29T03:11:43;18.30;1.00
2657;DHT22;1338;48.176;11.792;2022-07-29T03:14:17;18.20;1.00
2657;DHT22;1338;48.176;11.792;2022-07-29T03:16:49;18.30;1.00
2657;DHT22;1338;48.176;11.792;2022-07-29T03:19:19;18.20;1.00
2657;DHT22;1338;48.176;11.792;2022-07-29T03:21:48;18.00;1.00
2657;DHT22;1338;48.176;11.792;2022-07-29T03:24:30;18.00;1.00
2657;DHT22;1338;48.176;11.792;2022-07-29T03:26:59;17.90;1.00
2657;DHT22;1338;48.176;11.792;2022-07-29T03:29:28;17.80;1.00
2657;DHT22;1338;48.176;11.792;2022-07-29T03:32:02;17.60;1.00
2657;DHT22;1338;48.176;11.792;2022-07-29T03:34:35;17.50;1.00
2657;DHT22;1338;48.176;11.792;2022-07-29T03:37:04;17.50;1.00
2657;DHT22;1338;48.176;11.792;2022-07-29T03:39:36;17.40;1.00
2657;DHT22;1338;48.176;11.792;2022-07-29T03:42:07;17.40;1.00
2657;DHT22;1338;48.176;11.792;2022-07-29T03:44:37;17.30;1.00
2657;DHT22;1338;48.176;11.792;2022-07-29T03:47:09;17.30;1.00
2657;DHT22;1338;48.176;11.792;2022-07-29T03:49:40;17.30;1.00
2657;DHT22;1338;48.176;11.792;2022-07-29T03:52:09;17.30;1.00
2657;DHT22;1338;48.176;11.792;2022-07-29T03:54:37;17.20;1.00
2657;DHT22;1338;48.176;11.792;2022-07-29T03:57:07;17.10;1.00
2657;DHT22;1338;48.176;11.792;2022-07-29T03:59:36;17.10;1.00
2657;DHT22;1338;48.176;11.792;2022-07-29T04:02:05;17.10;1.00
2657;DHT22;1338;48.176;11.792;2022-07-29T04:04:37;17.00;1.00
2657;DHT22;1338;48.176;11.792;2022-07-29T04:07:05;17.10;1.00
2657;DHT22;1338;48.176;11.792;2022-07-29T04:09:33;17.00;1.00
2657;DHT22;1338;48.176;11.792;2022-07-29T04:12:02;17.10;1.00
2657;DHT22;1338;48.176;11.792;2022-07-29T04:14:31;16.90;1.00
2657;DHT22;1338;48.176;11.792;2022-07-29T04:17:00;17.00;1.00
2657;DHT22;1338;48.176;11.792;2022-07-29T04:19:28;17.00;1.00
2657;DHT22;1338;48.176;11.792;2022-07-29T04:21:59;17.00;1.00
2657;DHT22;1338;48.176;11.792;2022-07-29T04:24:27;17.10;1.00
2657;DHT22;1338;48.176;11.792;2022-07-29T04:26:56;17.10;1.00
2657;DHT22;1338;48.176;11.792;2022-07-29T04:29:24;16.80;1.00
2657;DHT22;1338;48.176;11.792;2022-07-29T04:31:52;16.90;1.00
2657;DHT22;1338;48.176;11.792;2022-07-29T04:34:20;17.00;1.00
2657;DHT22;1338;48.176;11.792;2022-07-29T04:36:54;18.10;1.00
2657;DHT22;1338;48.176;11.792;2022-07-29T04:39:23;20.10;1.00
2657;DHT22;1338;48.176;11.792;2022-07-29T04:41:56;20.10;1.00
2657;DHT22;1338;48.176;11.792;2022-07-29T04:44:24;19.90;1.00
2657;DHT22;1338;48.176;11.792;2022-07-29T04:46:56;20.40;1.00
2657;DHT22;1338;48.176;11.792;2022-07-29T04:49:24;20.70;1.00
2657;DHT22;1338;48.176;11.792;2022-07-29T04:51:53;20.80;1.00
2657;DHT22;1338;48.176;11.792;2022-07-29T04:54:22;20.80;1.00
2657;DHT22;1338;48.176;11.792;2022-07-29T04:56:51;21.20;1.00
2657;DHT22;1338;48.176;11.792;2022-07-29T04:59:20;20.80;1.00
2657;DHT22;1338;48.176;11.792;2022-07-29T05:01:48;21.10;1.00
2657;DHT22;1338;48.176;11.792;2022-07-29T05:04:16;21.00;1.00
2657;DHT22;1338;48.176;11.792;2022-07-29T05:06:46;20.50;1.00
2657;DHT22;1338;48.176;11.792;2022-07-29T05:09:14;20.80;1.00
2657;DHT22;1338;48.176;11.792;2022-07-29T05:11:43;20.80;1.00
2657;DHT22;1338;48.176;11.792;2022-07-29T05:14:12;20.60;1.00
2657;DHT22;1338;48.176;11.792;2022-07-29T05:16:40;20.80;1.00
2657;DHT22;1338;48.176;11.792;2022-07-29T05:19:09;21.10;1.00
2657;DHT22;1338;48.176;11.792;2022-07-29T05:21:40;21.30;1.00
2657;DHT22;1338;48.176;11.792;2022-07-29T05:24:08;21.20;1.00
2657;DHT22;1338;48.176;11.792;2022-07-29T05:26:37;20.70;1.00
2657;DHT22;1338;48.176;11.792;2022-07-29T05:29:06;20.20;1.00
2657;DHT22;1338;48.176;11.792;2022-07-29T05:31:55;20.50;1.00
2657;DHT22;1338;48.176;11.792;2022-07-29T05:34:23;20.30;1.00
2657;DHT22;1338;48.176;11.792;2022-07-29T05:36:52;20.10;1.00
2657;DHT22;1338;48.176;11.792;2022-07-29T05:39:20;20.50;1.00
2657;DHT22;1338;48.176;11.792;2022-07-29T05:42:09;20.50;1.00
2657;DHT22;1338;48.176;11.792;2022-07-29T05:44:38;20.50;1.00
2657;DHT22;1338;48.176;11.792;2022-07-29T05:47:07;20.90;1.00
2657;DHT22;1338;48.176;11.792;2022-07-29T05:49:35;21.00;1.00
2657;DHT22;1338;48.176;11.792;2022-07-29T05:52:04;20.60;1.00
2657;DHT22;1338;48.176;11.792;2022-07-29T05:54:32;20.40;1.00
2657;DHT22;1338;48.176;11.792;2022-07-29T05:57:00;20.70;1.00
2657;DHT22;1338;48.176;11.792;2022-07-29T05:59:29;21.00;1.00
2657;DHT22;1338;48.176;11.792;2022-07-29T06:01:58;21.30;1.00
2657;DHT22;1338;48.176;11.792;2022-07-29T06:04:26;21.10;1.00
2657;DHT22;1338;48.176;11.792;2022-07-29T06:06:55;20.80;1.00
2657;DHT22;1338;48.176;11.792;2022-07-29T06:09:23;21.20;1.00
2657;DHT22;1338;48.176;11.792;2022-07-29T06:11:51;21.30;1.00
2657;DHT22;1338;48.176;11.792;2022-07-29T06:14:20;21.20;1.00
2657;DHT22;1338;48.176;11.792;2022-07-29T06:16:48;21.20;1.00
2657;DHT22;1338;48.176;11.792;2022-07-29T06:19:18;20.80;1.00
2657;DHT22;1338;48.176;11.792;2022-07-29T06:21:46;20.80;1.00
2657;DHT22;1338;48.176;11.792;2022-07-29T06:24:15;20.90;1.00
2657;DHT22;1338;48.176;11.792;2022-07-29T06:26:45;20.90;1.00
2657;DHT22;1338;48.176;11.792;2022-07-29T06:29:13;20.90;1.00
2657;DHT22;1338;48.176;11.792;2022-07-29T06:31:41;21.10;1.00
2657;DHT22;1338;48.176;11.792;2022-07-29T06:34:09;21.30;1.00
2657;DHT22;1338;48.176;11.792;2022-07-29T06:36:40;21.40;1.00
2657;DHT22;1338;48.176;11.792;2022-07-29T06:39:08;21.50;1.00
2657;DHT22;1338;48.176;11.792;2022-07-29T06:41:38;21.30;1.00
2657;DHT22;1338;48.176;11.792;2022-07-29T06:44:08;21.30;1.00
2657;DHT22;1338;48.176;11.792;2022-07-29T06:46:37;21.20;1.00
2657;DHT22;1338;48.176;11.792;2022-07-29T06:49:05;21.40;1.00
2657;DHT22;1338;48.176;11.792;2022-07-29T06:51:34;21.40;1.00
2657;DHT22;1338;48.176;11.792;2022-07-29T06:54:03;21.20;1.00
2657;DHT22;1338;48.176;11.792;2022-07-29T06:56:33;21.70;1.00
2657;DHT22;1338;48.176;11.792;2022-07-29T06:59:06;21.90;1.00
2657;DHT22;1338;48.176;11.792;2022-07-29T07:01:35;21.90;1.00
2657;DHT22;1338;48.176;11.792;2022-07-29T07:04:05;21.80;1.00
2657;DHT22;1338;48.176;11.792;2022-07-29T07:06:33;21.90;1.00
2657;DHT22;1338;48.176;11.792;2022-07-29T07:09:03;21.90;1.00
2657;DHT22;1338;48.176;11.792;2022-07-29T07:11:31;22.00;1.00
2657;DHT22;1338;48.176;11.792;2022-07-29T07:13:59;22.20;1.00
2657;DHT22;1338;48.176;11.792;2022-07-29T07:16:30;22.30;1.00
2657;DHT22;1338;48.176;11.792;2022-07-29T07:18:59;22.20;1.00
2657;DHT22;1338;48.176;11.792;2022-07-29T07:21:28;22.40;1.00
2657;DHT22;1338;48.176;11.792;2022-07-29T07:23:57;22.50;1.00
2657;DHT22;1338;48.176;11.792;2022-07-29T07:26:27;22.50;1.00
2657;DHT22;1338;48.176;11.792;2022-07-29T07:28:56;22.70;1.00
2657;DHT22;1338;48.176;11.792;2022-07-29T07:31:24;22.70;1.00
2657;DHT22;1338;48.176;11.792;2022-07-29T07:33:53;22.70;1.00
2657;DHT22;1338;48.176;11.792;2022-07-29T07:36:21;22.60;1.00
2657;DHT22;1338;48.176;11.792;2022-07-29T07:38:49;22.60;1.00
2657;DHT22;1338;48.176;11.792;2022-07-29T07:41:18;22.50;1.00
2657;DHT22;1338;48.176;11.792;2022-07-29T07:43:47;22.70;1.00
2657;DHT22;1338;48.176;11.792;2022-07-29T07:46:16;22.20;1.00
2657;DHT22;1338;48.176;11.792;2022-07-29T07:48:44;22.30;1.00
2657;DHT22;1338;48.176;11.792;2022-07-29T07:51:13;22.50;1.00
2657;DHT22;1338;48.176;11.792;2022-07-29T07:53:41;22.60;1.00
2657;DHT22;1338;48.176;11.792;2022-07-29T07:56:11;22.30;1.00
2657;DHT22;1338;48.176;11.792;2022-07-29T07:58:40;22.60;1.00
2657;DHT22;1338;48.176;11.792;2022-07-29T08:01:09;22.70;1.00
2657;DHT22;1338;48.176;11.792;2022-07-29T08:03:38;23.10;1.00
2657;DHT22;1338;48.176;11.792;2022-07-29T08:06:06;23.30;1.00
2657;DHT22;1338;48.176;11.792;2022-07-29T08:08:35;23.30;1.00
2657;DHT22;1338;48.176;11.792;2022-07-29T08:11:03;23.50;1.00
2657;DHT22;1338;48.176;11.792;2022-07-29T08:13:36;23.50;1.00
2657;DHT22;1338;48.176;11.792;2022-07-29T08:16:06;23.70;1.00
2657;DHT22;1338;48.176;11.792;2022-07-29T08:18:44;23.70;1.00
2657;DHT22;1338;48.176;11.792;2022-07-29T08:21:14;23.90;1.00
2657;DHT22;1338;48.176;11.792;2022-07-29T08:23:43;24.00;1.00
2657;DHT22;1338;48.176;11.792;2022-07-29T08:26:27;24.20;1.00
2657;DHT22;1338;48.176;11.792;2022-07-29T08:28:55;24.30;1.00
2657;DHT22;1338;48.176;11.792;2022-07-29T08:31:23;24.00;1.00
2657;DHT22;1338;48.176;11.792;2022-07-29T08:33:53;24.10;99.90
2657;DHT22;1338;48.176;11.792;2022-07-29T08:36:23;23.50;99.90
2657;DHT22;1338;48.176;11.792;2022-07-29T08:38:51;23.90;99.90
2657;DHT22;1338;48.176;11.792;2022-07-29T08:41:19;24.00;99.90
2657;DHT22;1338;48.176;11.792;2022-07-29T08:43:48;24.20;99.90
2657;DHT22;1338;48.176;11.792;2022-07-29T08:46:17;24.20;99.90
2657;DHT22;1338;48.176;11.792;2022-07-29T08:48:46;24.40;99.90
2657;DHT22;1338;48.176;11.792;2022-07-29T08:51:18;24.50;99.90
2657;DHT22;1338;48.176;11.792;2022-07-29T08:53:47;24.60;99.90
2657;DHT22;1338;48.176;11.792;2022-07-29T08:56:17;24.30;99.90
2657;DHT22;1338;48.176;11.792;2022-07-29T08:58:46;24.60;99.90
2657;DHT22;1338;48.176;11.792;2022-07-29T09:01:23;24.30;99.90
2657;DHT22;1338;48.176;11.792;2022-07-29T09:04:04;24.60;99.90
2657;DHT22;1338;48.176;11.792;2022-07-29T09:06:37;25.10;99.90
2657;DHT22;1338;48.176;11.792;2022-07-29T09:09:08;24.90;99.90
2657;DHT22;1338;48.176;11.792;2022-07-29T09:11:36;25.30;99.90
2657;DHT22;1338;48.176;11.792;2022-07-29T09:14:05;25.30;99.90
2657;DHT22;1338;48.176;11.792;2022-07-29T09:16:45;24.90;99.90
2657;DHT22;1338;48.176;11.792;2022-07-29T09:19:20;25.20;99.90
2657;DHT22;1338;48.176;11.792;2022-07-29T09:21:51;25.20;99.90
2657;DHT22;1338;48.176;11.792;2022-07-29T09:24:28;25.00;99.90
2657;DHT22;1338;48.176;11.792;2022-07-29T09:27:08;25.20;99.90
2657;DHT22;1338;48.176;11.792;2022-07-29T09:29:37;25.70;99.90
2657;DHT22;1338;48.176;11.792;2022-07-29T09:32:08;25.40;99.90
2657;DHT22;1338;48.176;11.792;2022-07-29T09:34:37;25.20;99.90
2657;DHT22;1338;48.176;11.792;2022-07-29T09:37:07;25.30;99.90
2657;DHT22;1338;48.176;11.792;2022-07-29T09:39:37;25.40;99.90
2657;DHT22;1338;48.176;11.792;2022-07-29T09:42:12;25.70;99.90
2657;DHT22;1338;48.176;11.792;2022-07-29T09:44:44;25.90;99.90
2657;DHT22;1338;48.176;11.792;2022-07-29T09:47:12;26.00;99.90
2657;DHT22;1338;48.176;11.792;2022-07-29T09:49:55;26.00;99.90
2657;DHT22;1338;48.176;11.792;2022-07-29T09:52:26;25.50;99.90
2657;DHT22;1338;48.176;11.792;2022-07-29T09:55:04;25.80;99.90
2657;DHT22;1338;48.176;11.792;2022-07-29T09:57:32;26.00;99.90
2657;DHT22;1338;48.176;11.792;2022-07-29T10:00:04;26.00;99.90
2657;DHT22;1338;48.176;11.792;2022-07-29T10:02:41;25.70;99.90
2657;DHT22;1338;48.176;11.792;2022-07-29T10:05:18;25.50;99.90
2657;DHT22;1338;48.176;11.792;2022-07-29T10:07:50;26.40;99.90
2657;DHT22;1338;48.176;11.792;2022-07-29T10:10:21;26.60;99.90
2657;DHT22;1338;48.176;11.792;2022-07-29T10:12:52;26.40;99.90
2657;DHT22;1338;48.176;11.792;2022-07-29T10:15:22;26.80;99.90
2657;DHT22;1338;48.176;11.792;2022-07-29T10:17:51;26.70;99.90
2657;DHT22;1338;48.176;11.792;2022-07-29T10:20:20;26.20;99.90
2657;DHT22;1338;48.176;11.792;2022-07-29T10:22:50;25.80;99.90
2657;DHT22;1338;48.176;11.792;2022-07-29T10:25:20;26.00;99.90
2657;DHT22;1338;48.176;11.792;2022-07-29T10:27:49;25.60;99.90
2657;DHT22;1338;48.176;11.792;2022-07-29T10:30:20;25.70;99.90
2657;DHT22;1338;48.176;11.792;2022-07-29T10:33:08;25.40;99.90
2657;DHT22;1338;48.176;11.792;2022-07-29T10:35:59;25.50;99.90
2657;DHT22;1338;48.176;11.792;2022-07-29T10:38:42;25.40;99.90
2657;DHT22;1338;48.176;11.792;2022-07-29T10:41:23;25.50;99.90
2657;DHT22;1338;48.176;11.792;2022-07-29T10:44:05;25.50;99.90
2657;DHT22;1338;48.176;11.792;2022-07-29T10:46:43;24.90;99.90
2657;DHT22;1338;48.176;11.792;2022-07-29T10:49:13;25.20;99.90
2657;DHT22;1338;48.176;11.792;2022-07-29T10:51:58;25.10;99.90
2657;DHT22;1338;48.176;11.792;2022-07-29T10:54:52;25.10;99.90
2657;DHT22;1338;48.176;11.792;2022-07-29T10:57:26;25.00;99.90
2657;DHT22;1338;48.176;11.792;2022-07-29T11:00:30;25.20;99.90
2657;DHT22;1338;48.176;11.792;2022-07-29T11:02:59;25.10;99.90
2657;DHT22;1338;48.176;11.792;2022-07-29T11:05:52;24.90;99.90
2657;DHT22;1338;48.176;11.792;2022-07-29T11:08:22;25.00;99.90
2657;DHT22;1338;48.176;11.792;2022-07-29T11:13:59;25.00;99.90
2657;DHT22;1338;48.176;11.792;2022-07-29T11:17:01;25.10;99.90
2657;DHT22;1338;48.176;11.792;2022-07-29T11:19:33;25.30;99.90
2657;DHT22;1338;48.176;11.792;2022-07-29T11:22:02;25.50;99.90
2657;DHT22;1338;48.176;11.792;2022-07-29T11:24:31;25.90;99.90
2657;DHT22;1338;48.176;11.792;2022-07-29T11:27:21;26.60;99.90
2657;DHT22;1338;48.176;11.792;2022-07-29T11:29:59;26.80;99.90
2657;DHT22;1338;48.176;11.792;2022-07-29T11:32:36;26.60;99.90
2657;DHT22;1338;48.176;11.792;2022-07-29T11:35:14;26.70;99.90
2657;DHT22;1338;48.176;11.792;2022-07-29T11:37:45;27.60;99.90
2657;DHT22;1338;48.176;11.792;2022-07-29T11:40:23;27.10;99.90
2657;DHT22;1338;48.176;11.792;2022-07-29T11:42:52;26.80;99.90
2657;DHT22;1338;48.176;11.792;2022-07-29T11:45:27;27.60;99.90
2657;DHT22;1338;48.176;11.792;2022-07-29T11:48:16;27.20;99.90
2657;DHT22;1338;48.176;11.792;2022-07-29T11:50:56;27.10;99.90
2657;DHT22;1338;48.176;11.792;2022-07-29T11:53:25;27.10;99.90
2657;DHT22;1338;48.176;11.792;2022-07-29T11:55:55;27.50;99.90
2657;DHT22;1338;48.176;11.792;2022-07-29T11:58:24;26.90;99.90
2657;DHT22;1338;48.176;11.792;2022-07-29T12:00:54;27.70;99.90
2657;DHT22;1338;48.176;11.792;2022-07-29T12:03:25;28.70;99.90
2657;DHT22;1338;48.176;11.792;2022-07-29T12:06:01;27.90;99.90
2657;DHT22;1338;48.176;11.792;2022-07-29T12:08:40;27.60;99.90
2657;DHT22;1338;48.176;11.792;2022-07-29T12:11:16;28.00;99.90
2657;DHT22;1338;48.176;11.792;2022-07-29T12:13:48;28.50;99.90
2657;DHT22;1338;48.176;11.792;2022-07-29T12:16:18;28.10;99.90
2657;DHT22;1338;48.176;11.792;2022-07-29T12:18:56;28.40;99.90
2657;DHT22;1338;48.176;11.792;2022-07-29T12:21:25;28.00;99.90
2657;DHT22;1338;48.176;11.792;2022-07-29T12:23:56;28.90;99.90
2657;DHT22;1338;48.176;11.792;2022-07-29T12:26:34;28.30;99.90
2657;DHT22;1338;48.176;11.792;2022-07-29T12:29:03;27.70;99.90
2657;DHT22;1338;48.176;11.792;2022-07-29T12:31:43;28.20;99.90
2657;DHT22;1338;48.176;11.792;2022-07-29T12:34:12;28.50;99.90
2657;DHT22;1338;48.176;11.792;2022-07-29T12:36:42;27.80;99.90
2657;DHT22;1338;48.176;11.792;2022-07-29T12:39:10;27.50;99.90
2657;DHT22;1338;48.176;11.792;2022-07-29T12:41:39;27.50;99.90
2657;DHT22;1338;48.176;11.792;2022-07-29T12:44:07;27.20;99.90
2657;DHT22;1338;48.176;11.792;2022-07-29T12:46:36;26.90;99.90
2657;DHT22;1338;48.176;11.792;2022-07-29T12:49:07;27.00;99.90
2657;DHT22;1338;48.176;11.792;2022-07-29T12:51:38;27.40;99.90
2657;DHT22;1338;48.176;11.792;2022-07-29T12:54:08;27.30;99.90
2657;DHT22;1338;48.176;11.792;2022-07-29T12:56:38;27.30;99.90
2657;DHT22;1338;48.176;11.792;2022-07-29T12:59:14;27.10;99.90
2657;DHT22;1338;48.176;11.792;2022-07-29T13:01:42;27.40;99.90
2657;DHT22;1338;48.176;11.792;2022-07-29T13:04:23;28.10;99.90
2657;DHT22;1338;48.176;11.792;2022-07-29T13:06:58;28.20;99.90
2657;DHT22;1338;48.176;11.792;2022-07-29T13:09:37;28.20;99.90
2657;DHT22;1338;48.176;11.792;2022-07-29T13:12:07;28.40;99.90
2657;DHT22;1338;48.176;11.792;2022-07-29T13:14:38;27.70;99.90
2657;DHT22;1338;48.176;11.792;2022-07-29T13:17:08;27.30;99.90
2657;DHT22;1338;48.176;11.792;2022-07-29T13:19:39;27.10;99.90
2657;DHT22;1338;48.176;11.792;2022-07-29T13:22:08;27.10;99.90
2657;DHT22;1338;48.176;11.792;2022-07-29T13:24:47;26.90;99.90
2657;DHT22;1338;48.176;11.792;2022-07-29T13:27:17;26.80;99.90
2657;DHT22;1338;48.176;11.792;2022-07-29T13:29:45;26.60;99.90
2657;DHT22;1338;48.176;11.792;2022-07-29T13:32:13;26.50;99.90
2657;DHT22;1338;48.176;11.792;2022-07-29T13:34:43;26.40;99.90
2657;DHT22;1338;48.176;11.792;2022-07-29T13:37:11;26.50;99.90
2657;DHT22;1338;48.176;11.792;2022-07-29T13:39:39;26.60;99.90
2657;DHT22;1338;48.176;11.792;2022-07-29T13:42:18;26.50;99.90
2657;DHT22;1338;48.176;11.792;2022-07-29T13:44:46;26.20;99.90
2657;DHT22;1338;48.176;11.792;2022-07-29T13:47:15;25.90;99.90
2657;DHT22;1338;48.176;11.792;2022-07-29T13:49:45;26.10;99.90
2657;DHT22;1338;48.176;11.792;2022-07-29T13:52:13;26.20;99.90
2657;DHT22;1338;48.176;11.792;2022-07-29T13:54:42;26.20;99.90
2657;DHT22;1338;48.176;11.792;2022-07-29T13:57:11;25.90;99.90
2657;DHT22;1338;48.176;11.792;2022-07-29T13:59:39;25.90;99.90
2657;DHT22;1338;48.176;11.792;2022-07-29T14:02:09;25.90;99.90
2657;DHT22;1338;48.176;11.792;2022-07-29T14:04:41;25.90;99.90
2657;DHT22;1338;48.176;11.792;2022-07-29T14:07:11;26.00;99.90
2657;DHT22;1338;48.176;11.792;2022-07-29T14:09:42;26.00;99.90
2657;DHT22;1338;48.176;11.792;2022-07-29T14:12:11;26.00;99.90
2657;DHT22;1338;48.176;11.792;2022-07-29T14:14:39;26.20;99.90
2657;DHT22;1338;48.176;11.792;2022-07-29T14:17:09;25.90;99.90
2657;DHT22;1338;48.176;11.792;2022-07-29T14:19:37;26.20;99.90
2657;DHT22;1338;48.176;11.792;2022-07-29T14:22:07;25.90;99.90
2657;DHT22;1338;48.176;11.792;2022-07-29T14:24:38;26.00;99.90
2657;DHT22;1338;48.176;11.792;2022-07-29T14:27:07;25.90;99.90
2657;DHT22;1338;48.176;11.792;2022-07-29T14:29:36;25.90;99.90
2657;DHT22;1338;48.176;11.792;2022-07-29T14:32:05;26.10;99.90
2657;DHT22;1338;48.176;11.792;2022-07-29T14:34:34;26.60;99.90
2657;DHT22;1338;48.176;11.792;2022-07-29T14:37:03;26.40;99.90
2657;DHT22;1338;48.176;11.792;2022-07-29T14:39:33;26.10;99.90
2657;DHT22;1338;48.176;11.792;2022-07-29T14:42:10;26.10;99.90
2657;DHT22;1338;48.176;11.792;2022-07-29T14:44:39;26.30;99.90
2657;DHT22;1338;48.176;11.792;2022-07-29T14:47:08;25.80;99.90
2657;DHT22;1338;48.176;11.792;2022-07-29T14:49:37;26.00;99.90
2657;DHT22;1338;48.176;11.792;2022-07-29T14:52:05;25.70;99.90
2657;DHT22;1338;48.176;11.792;2022-07-29T14:54:33;25.80;99.90
2657;DHT22;1338;48.176;11.792;2022-07-29T14:57:01;25.70;99.90
2657;DHT22;1338;48.176;11.792;2022-07-29T14:59:31;25.80;99.90
2657;DHT22;1338;48.176;11.792;2022-07-29T15:01:59;25.70;99.90
2657;DHT22;1338;48.176;11.792;2022-07-29T15:04:28;25.80;99.90
2657;DHT22;1338;48.176;11.792;2022-07-29T15:06:56;25.60;99.90
2657;DHT22;1338;48.176;11.792;2022-07-29T15:09:24;25.70;99.90
2657;DHT22;1338;48.176;11.792;2022-07-29T15:11:52;25.40;99.90
2657;DHT22;1338;48.176;11.792;2022-07-29T15:14:21;25.60;99.90
2657;DHT22;1338;48.176;11.792;2022-07-29T15:16:50;25.70;99.90
2657;DHT22;1338;48.176;11.792;2022-07-29T15:19:19;25.90;99.90
2657;DHT22;1338;48.176;11.792;2022-07-29T15:21:47;25.90;99.90
2657;DHT22;1338;48.176;11.792;2022-07-29T15:24:15;25.90;99.90
2657;DHT22;1338;48.176;11.792;2022-07-29T15:26:44;26.00;99.90
2657;DHT22;1338;48.176;11.792;2022-07-29T15:29:13;25.90;99.90
2657;DHT22;1338;48.176;11.792;2022-07-29T15:31:41;25.40;99.90
2657;DHT22;1338;48.176;11.792;2022-07-29T15:34:11;25.30;99.90
2657;DHT22;1338;48.176;11.792;2022-07-29T15:36:39;25.20;99.90
2657;DHT22;1338;48.176;11.792;2022-07-29T15:39:23;25.10;99.90
2657;DHT22;1338;48.176;11.792;2022-07-29T15:41:51;24.90;99.90
2657;DHT22;1338;48.176;11.792;2022-07-29T15:44:20;24.90;99.90
2657;DHT22;1338;48.176;11.792;2022-07-29T15:46:49;24.80;99.90
2657;DHT22;1338;48.176;11.792;2022-07-29T15:49:36;24.90;99.90
2657;DHT22;1338;48.176;11.792;2022-07-29T15:52:16;24.90;99.90
2657;DHT22;1338;48.176;11.792;2022-07-29T15:54:53;24.80;99.90
2657;DHT22;1338;48.176;11.792;2022-07-29T15:57:22;24.90;99.90
2657;DHT22;1338;48.176;11.792;2022-07-29T15:59:50;24.50;99.90
2657;DHT22;1338;48.176;11.792;2022-07-29T16:02:18;24.60;99.90
2657;DHT22;1338;48.176;11.792;2022-07-29T16:04:48;24.40;99.90
2657;DHT22;1338;48.176;11.792;2022-07-29T16:07:16;24.30;99.90
2657;DHT22;1338;48.176;11.792;2022-07-29T16:09:45;24.10;99.90
2657;DHT22;1338;48.176;11.792;2022-07-29T16:12:19;23.90;99.90
2657;DHT22;1338;48.176;11.792;2022-07-29T16:14:47;23.70;99.90
2657;DHT22;1338;48.176;11.792;2022-07-29T16:17:17;23.60;99.90
2657;DHT22;1338;48.176;11.792;2022-07-29T16:19:45;23.60;99.90
2657;DHT22;1338;48.176;11.792;2022-07-29T16:22:15;23.50;99.90
2657;DHT22;1338;48.176;11.792;2022-07-29T16:24:43;23.50;99.90